UNDER78 Weather Reports


Display with metric or nautical units.
time (UTC)temp
F
wind
direction
speed
MPH
gust
MPH
rain 1hr
in
rain 24hr
in
rain mn
in
humidity
%
barometer
mb
20220520110001 77 133 0.0 6.0 0.00 0.18 0.02 69 1020.0
20220520104801 76 138 1.0 4.0 0.00 0.18 0.02 70 1020.4
20220520103601 76 134 1.0 7.0 0.00 0.18 0.02 71 1020.5
20220520102403 75 256 1.0 7.0 0.00 0.18 0.02 71 1020.8
20220520101202 74 238 1.0 3.0 0.00 0.18 0.02 74 1020.9
20220520100002 74 157 1.0 4.0 0.00 0.18 0.02 69 1021.0
20220520094801 74 248 1.0 6.0 0.00 0.18 0.02 75 1021.1
20220520093601 72 153 0.0 6.0 0.00 0.18 0.02 79 1021.2
20220520092402 73 132 0.0 2.0 0.00 0.18 0.02 70 1021.4
20220520091202 72 152 1.0 6.0 0.00 0.18 0.02 75 1021.5
20220520090002 69 151 1.0 4.0 0.00 0.18 0.02 78 1021.4
20220520084801 69 151 0.0 5.0 0.00 0.18 0.02 81 1021.5
20220520083602 68 185 1.0 2.0 0.00 0.18 0.02 80 1021.6
20220520082401 68 184 1.0 5.0 0.00 0.18 0.02 78 1021.6
20220520081202 69 207 2.0 4.0 0.00 0.18 0.02 80 1021.7
20220520080002 68 188 2.0 6.0 0.00 0.18 0.02 80 1021.8
20220520074802 68 186 1.0 5.0 0.00 0.18 0.02 80 1021.7
20220520073601 67 194 1.0 5.0 0.00 0.18 0.02 82 1021.6
20220520072402 67 160 0.0 7.0 0.00 0.18 0.02 85 1021.8
20220520071202 66 0 0.0 0.0 0.00 0.18 0.02 83 1021.8
20220520070002 66 0 0.0 0.0 0.00 0.18 0.02 84 1021.8
20220520064801 65 0 0.0 0.0 0.00 0.18 0.02 86 1021.9
20220520063602 64 0 0.0 0.0 0.00 0.18 0.02 90 1022.0
20220520062402 63 0 0.0 0.0 0.00 0.18 0.02 90 1021.9
20220520061203 62 0 0.0 0.0 0.00 0.18 0.02 92 1022.1
20220520060002 61 0 0.0 0.0 0.00 0.18 0.02 94 1022.2
20220520054802 61 0 0.0 0.0 0.00 0.18 0.02 93 1022.2
20220520053602 60 0 0.0 0.0 0.00 0.18 0.02 94 1022.4
20220520052402 60 0 0.0 0.0 0.00 0.18 0.02 95 1022.6
20220520051202 59 0 0.0 0.0 0.00 0.18 0.02 95 1022.5
20220520050002 58 0 0.0 0.0 0.00 0.18 0.02 97 1022.4
20220520044802 58 0 0.0 0.0 0.00 0.18 0.02 97 1022.5
20220520043602 57 0 0.0 0.0 0.01 0.18 0.02 96 1022.6
20220520042402 56 0 0.0 0.0 0.01 0.18 0.02 95 1022.5
20220520041202 56 0 0.0 0.0 0.01 0.18 0.02 95 1022.4
20220520040002 56 0 0.0 0.0 0.01 0.18 0.02 96 1022.2
20220520034802 56 0 0.0 0.0 0.01 0.18 0.02 96 1022.0
20220520033602 56 0 0.0 0.0 0.00 0.17 0.01 96 1021.8
20220520032402 56 0 0.0 0.0 0.00 0.17 0.01 96 1021.8
20220520031202 56 0 0.0 0.0 0.00 0.17 0.01 96 1021.9
20220520030002 56 0 0.0 0.0 0.00 0.17 0.01 96 1021.7
20220520024802 56 0 0.0 0.0 0.00 0.17 0.01 96 1021.7
20220520023602 57 0 0.0 0.0 0.00 0.17 0.01 96 1021.6
20220520022402 58 0 0.0 0.0 0.00 0.17 0.01 96 1021.7
20220520021202 57 0 0.0 0.0 0.00 0.17 0.01 96 1021.6
20220520020002 58 0 0.0 0.0 0.00 0.17 0.01 95 1021.7
20220520014802 58 0 0.0 0.0 0.00 0.17 0.01 96 1021.8
20220520013602 58 0 0.0 0.0 0.00 0.17 0.01 95 1021.7
20220520012402 58 0 0.0 0.0 0.00 0.17 0.01 95 1021.6
20220520011202 58 0 0.0 0.0 0.00 0.17 0.01 95 1021.6
20220520010002 58 0 0.0 0.0 0.00 0.17 0.01 96 1021.7
20220520004802 58 0 0.0 0.0 0.00 0.17 0.01 95 1021.6
20220520003602 59 0 0.0 0.0 0.00 0.17 0.01 95 1021.4
20220520002402 59 0 0.0 0.0 0.00 0.17 0.01 95 1021.5
20220520001203 59 0 0.0 0.0 0.00 0.17 0.01 95 1021.4
20220520000002 59 0 0.0 0.0 0.00 0.17 0.01 94 1021.5
20220519234802 59 0 0.0 0.0 0.00 0.17 0.01 94 1021.6
20220519233602 59 0 0.0 0.0 0.00 0.17 0.01 94 1021.5
20220519232403 60 0 0.0 0.0 0.00 0.17 0.01 93 1021.4
20220519231202 60 0 0.0 0.0 0.00 0.17 0.01 93 1021.5
20220519230002 60 0 0.0 0.0 0.01 0.17 0.01 93 1021.6
20220519224802 60 0 0.0 0.0 0.03 0.17 0.01 93 1021.5
20220519223602 60 113 0.0 1.0 0.09 0.17 0.01 92 1021.6
20220519222402 60 124 0.0 4.0 0.13 0.17 0.01 91 1021.9
20220519221202 60 126 2.0 8.0 0.17 0.17 0.01 91 1022.1
20220519220004 60 130 1.0 11.0 0.17 0.17 0.00 92 1022.2
20220519214803 60 132 0.0 3.0 0.14 0.14 0.14 91 1022.6
20220519213603 61 0 0.0 0.0 0.09 0.09 0.09 88 1023.1
20220519212402 62 347 3.0 6.0 0.04 0.04 0.04 84 1023.0
20220519211202 63 322 7.0 17.0 0.01 0.01 0.01 79 1022.6
20220519210003 65 325 7.0 17.0 0.00 0.00 0.00 74 1022.2
20220519204803 65 346 8.0 19.0 0.00 0.00 0.00 74 1022.0
20220519203602 67 315 9.0 22.0 0.00 0.00 0.00 71 1022.1
20220519202402 69 318 12.0 24.0 0.00 0.00 0.00 58 1021.8
20220519201203 69 312 8.0 28.0 0.00 0.00 0.00 60 1021.5
20220519200003 68 288 0.0 7.0 0.00 0.00 0.00 64 1020.3
20220519194803 69 0 0.0 0.0 0.00 0.00 0.00 60 1019.7
20220519162403 79 168 1.0 3.0 0.00 0.00 0.00 41 1019.0
20220519161203 79 165 1.0 7.0 0.00 0.00 0.00 41 1019.0
20220519160003 78 166 3.0 9.0 0.00 0.00 0.00 40 1019.1
20220519154803 79 163 1.0 8.0 0.00 0.00 0.00 40 1019.1
20220519153603 79 148 1.0 5.0 0.00 0.00 0.00 38 1019.2
20220519152403 79 178 1.0 5.0 0.00 0.00 0.00 39 1019.3
20220519151203 79 177 1.0 5.0 0.00 0.00 0.00 40 1019.4
20220519150003 79 194 1.0 6.0 0.00 0.00 0.00 41 1019.6
20220519144803 79 205 1.0 6.0 0.00 0.00 0.00 38 1019.6
20220519143603 79 201 0.0 3.0 0.00 0.00 0.00 42 1019.8
20220519142403 78 183 1.0 10.0 0.00 0.00 0.00 39 1019.9
20220519141203 80 203 1.0 6.0 0.00 0.00 0.00 39 1020.0
20220519140003 81 244 3.0 10.0 0.00 0.00 0.00 36 1020.1
20220519134803 80 209 2.0 9.0 0.00 0.00 0.00 37 1020.2
20220519133603 79 176 2.0 6.0 0.00 0.00 0.00 38 1020.4
20220519132403 79 199 2.0 9.0 0.00 0.00 0.00 39 1020.5
20220519131201 80 205 2.0 9.0 0.00 0.00 0.00 36 1020.6
20220519130001 80 219 3.0 11.0 0.00 0.00 0.00 34 1020.5
20220519124801 80 166 2.0 10.0 0.00 0.00 0.00 37 1020.6
20220519123602 80 179 3.0 12.0 0.00 0.00 0.00 33 1020.6
20220519122401 79 200 3.0 9.0 0.00 0.00 0.00 37 1020.6
20220519121201 79 201 3.0 11.0 0.00 0.00 0.00 38 1020.6
20220519120001 79 189 4.0 11.0 0.00 0.00 0.00 38 1020.9
20220519114801 79 166 3.0 12.0 0.00 0.00 0.00 36 1021.0
20220519113601 78 187 5.0 13.0 0.00 0.00 0.00 42 1021.0
20220519112401 78 179 4.0 14.0 0.00 0.00 0.00 46 1021.2
20220519111201 78 179 2.0 12.0 0.00 0.00 0.00 43 1021.4